sensor_id;sensor_type;location;lat;lon;timestamp;temperature;humidity
43808;DHT22;29438;50.664;10.098;2023-01-19T00:01:10;-3270.50;90.80
43808;DHT22;29438;50.664;10.098;2023-01-19T00:03:35;-3270.80;91.20
43808;DHT22;29438;50.664;10.098;2023-01-19T00:06:07;-3270.70;91.00
43808;DHT22;29438;50.664;10.098;2023-01-19T00:08:33;-3270.70;90.90
43808;DHT22;29438;50.664;10.098;2023-01-19T00:11:00;-3270.90;91.20
43808;DHT22;29438;50.664;10.098;2023-01-19T00:13:26;-3270.90;91.30
43808;DHT22;29438;50.664;10.098;2023-01-19T00:15:51;-3271.10;91.30
43808;DHT22;29438;50.664;10.098;2023-01-19T00:18:17;-3271.20;91.40
43808;DHT22;29438;50.664;10.098;2023-01-19T00:20:47;-3271.50;91.70
43808;DHT22;29438;50.664;10.098;2023-01-19T00:23:14;-3271.80;92.00
43808;DHT22;29438;50.664;10.098;2023-01-19T00:25:39;-3272.20;92.30
43808;DHT22;29438;50.664;10.098;2023-01-19T00:28:10;-3272.60;92.30
43808;DHT22;29438;50.664;10.098;2023-01-19T00:30:36;-3272.80;92.10
43808;DHT22;29438;50.664;10.098;2023-01-19T00:33:02;-3272.90;92.00
43808;DHT22;29438;50.664;10.098;2023-01-19T00:35:27;-3273.00;91.80
43808;DHT22;29438;50.664;10.098;2023-01-19T00:37:55;-3273.10;91.70
43808;DHT22;29438;50.664;10.098;2023-01-19T00:40:20;-3273.20;91.60
43808;DHT22;29438;50.664;10.098;2023-01-19T00:42:46;-3273.10;91.30
43808;DHT22;29438;50.664;10.098;2023-01-19T00:45:16;-3273.10;91.30
43808;DHT22;29438;50.664;10.098;2023-01-19T00:47:45;-3273.20;91.30
43808;DHT22;29438;50.664;10.098;2023-01-19T00:50:13;-3273.20;91.10
43808;DHT22;29438;50.664;10.098;2023-01-19T00:52:41;-3273.10;91.00
43808;DHT22;29438;50.664;10.098;2023-01-19T00:55:08;-3273.20;91.00
43808;DHT22;29438;50.664;10.098;2023-01-19T00:57:34;-3273.20;90.90
43808;DHT22;29438;50.664;10.098;2023-01-19T01:00:00;-3273.20;90.80
43808;DHT22;29438;50.664;10.098;2023-01-19T01:02:26;-3273.20;90.80
43808;DHT22;29438;50.664;10.098;2023-01-19T01:04:51;-3273.10;90.60
43808;DHT22;29438;50.664;10.098;2023-01-19T01:07:23;-3272.90;90.60
43808;DHT22;29438;50.664;10.098;2023-01-19T01:09:50;-3272.80;90.70
43808;DHT22;29438;50.664;10.098;2023-01-19T01:12:15;-3272.80;90.80
43808;DHT22;29438;50.664;10.098;2023-01-19T01:14:41;-3272.90;91.00
43808;DHT22;29438;50.664;10.098;2023-01-19T01:17:07;-3273.00;90.90
43808;DHT22;29438;50.664;10.098;2023-01-19T01:19:36;-3272.90;90.90
43808;DHT22;29438;50.664;10.098;2023-01-19T01:22:01;-3272.90;90.80
43808;DHT22;29438;50.664;10.098;2023-01-19T01:24:27;-3272.90;90.90
43808;DHT22;29438;50.664;10.098;2023-01-19T01:26:52;-3272.90;91.00
43808;DHT22;29438;50.664;10.098;2023-01-19T01:29:18;-3273.00;91.10
43808;DHT22;29438;50.664;10.098;2023-01-19T01:31:43;-3273.00;91.10
43808;DHT22;29438;50.664;10.098;2023-01-19T01:34:09;-3273.00;91.20
43808;DHT22;29438;50.664;10.098;2023-01-19T01:36:34;-3273.10;91.10
43808;DHT22;29438;50.664;10.098;2023-01-19T01:39:00;-3273.30;91.10
43808;DHT22;29438;50.664;10.098;2023-01-19T01:41:26;-3273.30;90.90
43808;DHT22;29438;50.664;10.098;2023-01-19T01:43:54;-3273.20;90.80
43808;DHT22;29438;50.664;10.098;2023-01-19T01:46:23;-3273.30;90.80
43808;DHT22;29438;50.664;10.098;2023-01-19T01:49:06;-3273.30;90.50
43808;DHT22;29438;50.664;10.098;2023-01-19T01:51:50;-3273.10;90.40
43808;DHT22;29438;50.664;10.098;2023-01-19T01:54:29;-3273.10;90.60
43808;DHT22;29438;50.664;10.098;2023-01-19T01:56:58;-3273.00;90.60
43808;DHT22;29438;50.664;10.098;2023-01-19T01:59:27;-3273.00;90.90
43808;DHT22;29438;50.664;10.098;2023-01-19T02:02:03;-3273.00;90.80
43808;DHT22;29438;50.664;10.098;2023-01-19T02:04:52;-3273.00;90.90
43808;DHT22;29438;50.664;10.098;2023-01-19T02:10:28;-3273.20;90.80
43808;DHT22;29438;50.664;10.098;2023-01-19T02:13:12;-3273.20;90.70
43808;DHT22;29438;50.664;10.098;2023-01-19T02:15:46;-3273.10;90.60
43808;DHT22;29438;50.664;10.098;2023-01-19T02:18:11;-3273.10;90.70
43808;DHT22;29438;50.664;10.098;2023-01-19T02:20:40;-3273.10;90.70
43808;DHT22;29438;50.664;10.098;2023-01-19T02:23:14;-3273.10;90.70
43808;DHT22;29438;50.664;10.098;2023-01-19T02:25:42;-3273.10;90.80
43808;DHT22;29438;50.664;10.098;2023-01-19T02:28:07;-3273.00;90.80
43808;DHT22;29438;50.664;10.098;2023-01-19T02:30:34;-3273.20;91.10
43808;DHT22;29438;50.664;10.098;2023-01-19T02:33:02;-3273.20;91.10
43808;DHT22;29438;50.664;10.098;2023-01-19T02:35:29;-3273.20;91.10
43808;DHT22;29438;50.664;10.098;2023-01-19T02:37:56;-3273.30;91.00
43808;DHT22;29438;50.664;10.098;2023-01-19T02:40:22;-3273.20;91.00
43808;DHT22;29438;50.664;10.098;2023-01-19T02:42:49;-3273.20;91.20
43808;DHT22;29438;50.664;10.098;2023-01-19T02:45:19;-3273.00;91.00
43808;DHT22;29438;50.664;10.098;2023-01-19T02:47:48;-3273.00;91.10
43808;DHT22;29438;50.664;10.098;2023-01-19T02:50:42;-3273.00;91.30
43808;DHT22;29438;50.664;10.098;2023-01-19T02:53:34;-3272.90;91.20
43808;DHT22;29438;50.664;10.098;2023-01-19T02:56:37;-3272.80;91.30
43808;DHT22;29438;50.664;10.098;2023-01-19T02:59:43;-3272.70;91.30
43808;DHT22;29438;50.664;10.098;2023-01-19T03:02:19;-3272.60;91.30
43808;DHT22;29438;50.664;10.098;2023-01-19T03:05:07;-3272.70;91.70
43808;DHT22;29438;50.664;10.098;2023-01-19T03:10:21;-3272.90;91.80
43808;DHT22;29438;50.664;10.098;2023-01-19T03:13:00;-3273.00;91.90
43808;DHT22;29438;50.664;10.098;2023-01-19T03:17:57;-3272.90;91.70
43808;DHT22;29438;50.664;10.098;2023-01-19T03:20:24;-3272.90;91.70
43808;DHT22;29438;50.664;10.098;2023-01-19T03:23:00;-3272.80;91.70
43808;DHT22;29438;50.664;10.098;2023-01-19T03:25:27;-3272.60;91.60
43808;DHT22;29438;50.664;10.098;2023-01-19T03:27:55;-3272.50;91.50
43808;DHT22;29438;50.664;10.098;2023-01-19T03:30:27;-3272.20;91.30
43808;DHT22;29438;50.664;10.098;2023-01-19T03:33:01;-3272.10;91.20
43808;DHT22;29438;50.664;10.098;2023-01-19T03:35:30;-3272.00;91.20
43808;DHT22;29438;50.664;10.098;2023-01-19T03:37:57;-3271.80;91.30
43808;DHT22;29438;50.664;10.098;2023-01-19T03:40:26;-3271.90;91.50
43808;DHT22;29438;50.664;10.098;2023-01-19T03:42:54;-3271.90;91.50
43808;DHT22;29438;50.664;10.098;2023-01-19T03:45:20;-3271.90;91.70
43808;DHT22;29438;50.664;10.098;2023-01-19T03:47:47;-3272.00;91.80
43808;DHT22;29438;50.664;10.098;2023-01-19T03:50:22;-3272.10;92.00
43808;DHT22;29438;50.664;10.098;2023-01-19T03:53:00;-3272.20;92.20
43808;DHT22;29438;50.664;10.098;2023-01-19T03:55:26;-3272.30;92.40
43808;DHT22;29438;50.664;10.098;2023-01-19T03:57:51;-3272.50;92.40
43808;DHT22;29438;50.664;10.098;2023-01-19T04:00:17;-3272.50;92.40
43808;DHT22;29438;50.664;10.098;2023-01-19T04:02:43;-3272.50;92.30
43808;DHT22;29438;50.664;10.098;2023-01-19T04:05:08;-3272.40;92.10
43808;DHT22;29438;50.664;10.098;2023-01-19T04:07:34;-3272.40;92.10
43808;DHT22;29438;50.664;10.098;2023-01-19T04:09:59;-3272.40;92.00
43808;DHT22;29438;50.664;10.098;2023-01-19T04:12:25;-3272.20;91.80
43808;DHT22;29438;50.664;10.098;2023-01-19T04:14:50;-3272.10;91.70
43808;DHT22;29438;50.664;10.098;2023-01-19T04:17:16;-3272.10;91.60
43808;DHT22;29438;50.664;10.098;2023-01-19T04:19:41;-3272.00;91.50
43808;DHT22;29438;50.664;10.098;2023-01-19T04:22:07;-3271.90;91.50
43808;DHT22;29438;50.664;10.098;2023-01-19T04:24:33;-3271.80;91.40
43808;DHT22;29438;50.664;10.098;2023-01-19T04:26:58;-3271.70;91.60
43808;DHT22;29438;50.664;10.098;2023-01-19T04:29:24;-3272.10;92.20
43808;DHT22;29438;50.664;10.098;2023-01-19T04:31:49;-3272.60;92.60
43808;DHT22;29438;50.664;10.098;2023-01-19T04:34:15;-3272.70;92.60
43808;DHT22;29438;50.664;10.098;2023-01-19T04:36:40;-3272.90;92.90
43808;DHT22;29438;50.664;10.098;2023-01-19T04:39:06;-3273.20;92.90
43808;DHT22;29438;50.664;10.098;2023-01-19T04:41:33;-3273.30;92.70
43808;DHT22;29438;50.664;10.098;2023-01-19T04:43:58;-3273.40;92.70
43808;DHT22;29438;50.664;10.098;2023-01-19T04:46:24;-3273.60;92.60
43808;DHT22;29438;50.664;10.098;2023-01-19T04:48:50;-3273.60;92.60
43808;DHT22;29438;50.664;10.098;2023-01-19T04:51:15;-3273.50;92.70
43808;DHT22;29438;50.664;10.098;2023-01-19T04:53:41;-3273.70;92.80
43808;DHT22;29438;50.664;10.098;2023-01-19T04:56:06;-3273.70;92.70
43808;DHT22;29438;50.664;10.098;2023-01-19T04:58:32;-3273.80;92.70
43808;DHT22;29438;50.664;10.098;2023-01-19T05:00:57;-3273.80;92.70
43808;DHT22;29438;50.664;10.098;2023-01-19T05:03:23;-3274.00;92.70
43808;DHT22;29438;50.664;10.098;2023-01-19T05:05:49;-3274.10;92.60
43808;DHT22;29438;50.664;10.098;2023-01-19T05:08:14;-3274.10;92.20
43808;DHT22;29438;50.664;10.098;2023-01-19T05:10:40;-3273.90;91.90
43808;DHT22;29438;50.664;10.098;2023-01-19T05:13:05;-3273.90;92.10
43808;DHT22;29438;50.664;10.098;2023-01-19T05:15:31;-3274.10;92.10
43808;DHT22;29438;50.664;10.098;2023-01-19T05:17:56;-3274.10;91.80
43808;DHT22;29438;50.664;10.098;2023-01-19T05:20:23;-3274.10;91.70
43808;DHT22;29438;50.664;10.098;2023-01-19T05:22:50;-3273.90;91.70
43808;DHT22;29438;50.664;10.098;2023-01-19T05:25:16;-3273.90;91.60
43808;DHT22;29438;50.664;10.098;2023-01-19T05:27:42;-3273.90;91.80
43808;DHT22;29438;50.664;10.098;2023-01-19T05:30:09;-3273.90;92.00
43808;DHT22;29438;50.664;10.098;2023-01-19T05:32:35;-3274.00;92.00
43808;DHT22;29438;50.664;10.098;2023-01-19T05:35:00;-3273.90;91.80
43808;DHT22;29438;50.664;10.098;2023-01-19T05:37:26;-3273.90;91.90
43808;DHT22;29438;50.664;10.098;2023-01-19T05:39:52;-3274.00;91.90
43808;DHT22;29438;50.664;10.098;2023-01-19T05:42:18;-3274.10;91.70
43808;DHT22;29438;50.664;10.098;2023-01-19T05:44:43;-3274.20;91.60
43808;DHT22;29438;50.664;10.098;2023-01-19T05:47:09;-3274.20;91.40
43808;DHT22;29438;50.664;10.098;2023-01-19T05:49:34;-3274.10;91.20
43808;DHT22;29438;50.664;10.098;2023-01-19T05:52:00;-3274.10;91.40
43808;DHT22;29438;50.664;10.098;2023-01-19T05:54:25;-3274.10;91.10
43808;DHT22;29438;50.664;10.098;2023-01-19T05:56:51;-3274.10;91.20
43808;DHT22;29438;50.664;10.098;2023-01-19T05:59:17;-3274.00;91.30
43808;DHT22;29438;50.664;10.098;2023-01-19T06:01:51;-3274.00;91.20
43808;DHT22;29438;50.664;10.098;2023-01-19T06:04:17;-3274.10;91.40
43808;DHT22;29438;50.664;10.098;2023-01-19T06:06:43;-3274.20;91.30
43808;DHT22;29438;50.664;10.098;2023-01-19T06:09:09;-3274.20;91.00
43808;DHT22;29438;50.664;10.098;2023-01-19T06:11:35;-3274.20;91.10
43808;DHT22;29438;50.664;10.098;2023-01-19T06:14:00;-3274.10;90.80
43808;DHT22;29438;50.664;10.098;2023-01-19T06:16:26;-3274.00;90.90
43808;DHT22;29438;50.664;10.098;2023-01-19T06:18:51;-3274.00;91.10
43808;DHT22;29438;50.664;10.098;2023-01-19T06:21:17;-3274.10;91.30
43808;DHT22;29438;50.664;10.098;2023-01-19T06:23:43;-3274.10;91.00
43808;DHT22;29438;50.664;10.098;2023-01-19T06:26:09;-3274.10;91.20
43808;DHT22;29438;50.664;10.098;2023-01-19T06:28:34;-3274.10;91.10
43808;DHT22;29438;50.664;10.098;2023-01-19T06:30:59;-3273.90;91.00
43808;DHT22;29438;50.664;10.098;2023-01-19T06:33:25;-3274.00;91.20
43808;DHT22;29438;50.664;10.098;2023-01-19T06:35:52;-3274.00;91.40
43808;DHT22;29438;50.664;10.098;2023-01-19T06:38:18;-3274.10;91.30
43808;DHT22;29438;50.664;10.098;2023-01-19T06:40:56;-3274.20;91.30
43808;DHT22;29438;50.664;10.098;2023-01-19T06:43:29;-3274.20;90.90
43808;DHT22;29438;50.664;10.098;2023-01-19T06:45:55;-3274.30;90.90
43808;DHT22;29438;50.664;10.098;2023-01-19T06:48:21;-3274.30;90.80
43808;DHT22;29438;50.664;10.098;2023-01-19T06:50:47;-3274.40;90.90
43808;DHT22;29438;50.664;10.098;2023-01-19T06:53:14;-3274.50;90.90
43808;DHT22;29438;50.664;10.098;2023-01-19T06:55:41;-3274.50;90.80
43808;DHT22;29438;50.664;10.098;2023-01-19T06:58:07;-3274.60;90.80
43808;DHT22;29438;50.664;10.098;2023-01-19T07:00:32;-3274.70;90.70
43808;DHT22;29438;50.664;10.098;2023-01-19T07:02:58;-3274.70;90.50
43808;DHT22;29438;50.664;10.098;2023-01-19T07:05:24;-3274.80;90.40
43808;DHT22;29438;50.664;10.098;2023-01-19T07:07:53;-3274.90;90.50
43808;DHT22;29438;50.664;10.098;2023-01-19T07:10:19;-3274.90;90.50
43808;DHT22;29438;50.664;10.098;2023-01-19T07:12:45;-3274.90;90.50
43808;DHT22;29438;50.664;10.098;2023-01-19T07:15:12;-3274.90;90.60
43808;DHT22;29438;50.664;10.098;2023-01-19T07:17:39;-3275.00;90.70
43808;DHT22;29438;50.664;10.098;2023-01-19T07:20:10;-3275.00;90.60
43808;DHT22;29438;50.664;10.098;2023-01-19T07:22:37;-3275.10;90.60
43808;DHT22;29438;50.664;10.098;2023-01-19T07:25:03;-3275.10;90.60
43808;DHT22;29438;50.664;10.098;2023-01-19T07:27:29;-3275.20;90.70
43808;DHT22;29438;50.664;10.098;2023-01-19T07:29:55;-3275.20;90.60
43808;DHT22;29438;50.664;10.098;2023-01-19T07:32:20;-3275.20;90.60
43808;DHT22;29438;50.664;10.098;2023-01-19T07:34:46;-3275.20;90.70
43808;DHT22;29438;50.664;10.098;2023-01-19T07:37:11;-3275.20;90.70
43808;DHT22;29438;50.664;10.098;2023-01-19T07:39:37;-3275.20;90.40
43808;DHT22;29438;50.664;10.098;2023-01-19T07:42:03;-3275.30;90.50
43808;DHT22;29438;50.664;10.098;2023-01-19T07:44:28;-3275.20;90.20
43808;DHT22;29438;50.664;10.098;2023-01-19T07:46:54;-3275.20;90.20
43808;DHT22;29438;50.664;10.098;2023-01-19T07:49:20;-3275.30;90.30
43808;DHT22;29438;50.664;10.098;2023-01-19T07:51:45;-3275.30;90.20
43808;DHT22;29438;50.664;10.098;2023-01-19T07:54:11;-3275.30;90.30
43808;DHT22;29438;50.664;10.098;2023-01-19T07:56:37;-3275.30;90.40
43808;DHT22;29438;50.664;10.098;2023-01-19T07:59:02;-3275.30;90.30
43808;DHT22;29438;50.664;10.098;2023-01-19T08:01:28;-3275.30;90.40
43808;DHT22;29438;50.664;10.098;2023-01-19T08:03:54;-3275.40;90.40
43808;DHT22;29438;50.664;10.098;2023-01-19T08:06:22;-3275.30;90.30
43808;DHT22;29438;50.664;10.098;2023-01-19T08:08:49;-3275.40;90.20
43808;DHT22;29438;50.664;10.098;2023-01-19T08:11:15;-3275.30;90.20
43808;DHT22;29438;50.664;10.098;2023-01-19T08:13:41;-3275.40;90.30
43808;DHT22;29438;50.664;10.098;2023-01-19T08:16:07;-3275.50;90.10
43808;DHT22;29438;50.664;10.098;2023-01-19T08:18:33;-3275.50;90.00
43808;DHT22;29438;50.664;10.098;2023-01-19T08:20:59;-3275.60;90.10
43808;DHT22;29438;50.664;10.098;2023-01-19T08:23:25;-3275.70;89.60
43808;DHT22;29438;50.664;10.098;2023-01-19T08:25:52;-3275.60;89.50
43808;DHT22;29438;50.664;10.098;2023-01-19T08:28:18;-3275.50;89.50
43808;DHT22;29438;50.664;10.098;2023-01-19T08:30:43;-3275.60;89.50
43808;DHT22;29438;50.664;10.098;2023-01-19T08:33:11;-3275.60;89.40
43808;DHT22;29438;50.664;10.098;2023-01-19T08:35:41;-3275.60;89.40
43808;DHT22;29438;50.664;10.098;2023-01-19T08:38:08;-3275.70;89.30
43808;DHT22;29438;50.664;10.098;2023-01-19T08:40:36;-3275.80;89.20
43808;DHT22;29438;50.664;10.098;2023-01-19T08:43:10;-3275.90;88.90
43808;DHT22;29438;50.664;10.098;2023-01-19T08:45:38;-3275.90;88.40
43808;DHT22;29438;50.664;10.098;2023-01-19T08:48:09;-3276.00;88.20
43808;DHT22;29438;50.664;10.098;2023-01-19T08:50:35;-3276.00;87.90
43808;DHT22;29438;50.664;10.098;2023-01-19T08:53:02;-3275.90;87.60
43808;DHT22;29438;50.664;10.098;2023-01-19T08:55:29;-3275.90;87.60
43808;DHT22;29438;50.664;10.098;2023-01-19T08:57:56;-3275.80;87.50
43808;DHT22;29438;50.664;10.098;2023-01-19T09:00:22;-3275.80;87.30
43808;DHT22;29438;50.664;10.098;2023-01-19T09:02:49;-3275.90;87.80
43808;DHT22;29438;50.664;10.098;2023-01-19T09:05:15;-3276.00;87.10
43808;DHT22;29438;50.664;10.098;2023-01-19T09:07:43;-3276.40;87.40
43808;DHT22;29438;50.664;10.098;2023-01-19T09:10:10;0.00;84.40
43808;DHT22;29438;50.664;10.098;2023-01-19T09:12:35;0.40;84.20
43808;DHT22;29438;50.664;10.098;2023-01-19T09:15:01;0.90;82.30
43808;DHT22;29438;50.664;10.098;2023-01-19T09:17:26;1.70;79.70
43808;DHT22;29438;50.664;10.098;2023-01-19T09:19:52;2.00;79.10
43808;DHT22;29438;50.664;10.098;2023-01-19T09:22:17;2.00;77.80
43808;DHT22;29438;50.664;10.098;2023-01-19T09:24:43;2.00;77.40
43808;DHT22;29438;50.664;10.098;2023-01-19T09:27:08;2.10;77.80
43808;DHT22;29438;50.664;10.098;2023-01-19T09:29:34;2.40;74.50
43808;DHT22;29438;50.664;10.098;2023-01-19T09:32:01;2.50;74.70
43808;DHT22;29438;50.664;10.098;2023-01-19T09:34:26;2.40;75.80
43808;DHT22;29438;50.664;10.098;2023-01-19T09:36:52;2.70;74.60
43808;DHT22;29438;50.664;10.098;2023-01-19T09:39:17;2.70;74.20
43808;DHT22;29438;50.664;10.098;2023-01-19T09:41:48;3.00;72.90
43808;DHT22;29438;50.664;10.098;2023-01-19T09:44:19;3.30;73.60
43808;DHT22;29438;50.664;10.098;2023-01-19T09:46:51;3.10;72.10
43808;DHT22;29438;50.664;10.098;2023-01-19T09:49:32;3.00;72.70
43808;DHT22;29438;50.664;10.098;2023-01-19T09:51:59;3.30;72.70
43808;DHT22;29438;50.664;10.098;2023-01-19T09:54:35;3.80;73.00
43808;DHT22;29438;50.664;10.098;2023-01-19T09:57:08;3.20;71.00
43808;DHT22;29438;50.664;10.098;2023-01-19T09:59:34;2.60;72.60
43808;DHT22;29438;50.664;10.098;2023-01-19T10:04:57;1.70;76.40
43808;DHT22;29438;50.664;10.098;2023-01-19T10:07:53;1.60;76.90
43808;DHT22;29438;50.664;10.098;2023-01-19T10:10:30;1.50;77.80
43808;DHT22;29438;50.664;10.098;2023-01-19T10:21:15;1.20;78.40
43808;DHT22;29438;50.664;10.098;2023-01-19T10:23:51;1.00;78.60
43808;DHT22;29438;50.664;10.098;2023-01-19T10:26:36;1.10;79.10
43808;DHT22;29438;50.664;10.098;2023-01-19T10:29:06;1.20;79.00
43808;DHT22;29438;50.664;10.098;2023-01-19T10:31:34;1.40;78.60
43808;DHT22;29438;50.664;10.098;2023-01-19T10:34:02;1.50;78.10
43808;DHT22;29438;50.664;10.098;2023-01-19T10:36:33;1.80;78.30
43808;DHT22;29438;50.664;10.098;2023-01-19T10:39:00;2.70;75.90
43808;DHT22;29438;50.664;10.098;2023-01-19T10:41:42;2.50;75.00
43808;DHT22;29438;50.664;10.098;2023-01-19T10:44:09;2.90;74.90
43808;DHT22;29438;50.664;10.098;2023-01-19T10:46:46;3.00;73.90
43808;DHT22;29438;50.664;10.098;2023-01-19T10:49:35;3.30;73.50
43808;DHT22;29438;50.664;10.098;2023-01-19T10:52:04;2.70;73.80
43808;DHT22;29438;50.664;10.098;2023-01-19T10:54:31;2.00;75.90
43808;DHT22;29438;50.664;10.098;2023-01-19T10:57:01;1.80;77.40
43808;DHT22;29438;50.664;10.098;2023-01-19T10:59:36;1.80;77.70
43808;DHT22;29438;50.664;10.098;2023-01-19T11:02:18;1.70;78.30
43808;DHT22;29438;50.664;10.098;2023-01-19T11:04:46;1.50;78.30
43808;DHT22;29438;50.664;10.098;2023-01-19T11:10:11;1.50;78.50
43808;DHT22;29438;50.664;10.098;2023-01-19T11:12:42;1.50;79.20
43808;DHT22;29438;50.664;10.098;2023-01-19T11:15:15;1.40;79.10
43808;DHT22;29438;50.664;10.098;2023-01-19T11:17:45;1.70;78.90
43808;DHT22;29438;50.664;10.098;2023-01-19T11:20:21;2.00;78.30
43808;DHT22;29438;50.664;10.098;2023-01-19T11:22:47;2.10;77.30
43808;DHT22;29438;50.664;10.098;2023-01-19T11:25:23;1.60;78.00
43808;DHT22;29438;50.664;10.098;2023-01-19T11:27:51;1.30;79.20
43808;DHT22;29438;50.664;10.098;2023-01-19T11:30:23;1.20;79.90
43808;DHT22;29438;50.664;10.098;2023-01-19T11:32:49;1.20;80.30
43808;DHT22;29438;50.664;10.098;2023-01-19T11:35:36;1.10;80.30
43808;DHT22;29438;50.664;10.098;2023-01-19T11:40:31;1.50;80.10
43808;DHT22;29438;50.664;10.098;2023-01-19T11:42:57;1.40;80.20
43808;DHT22;29438;50.664;10.098;2023-01-19T11:45:23;1.40;79.80
43808;DHT22;29438;50.664;10.098;2023-01-19T11:47:50;1.60;79.90
43808;DHT22;29438;50.664;10.098;2023-01-19T11:56:01;2.40;78.60
43808;DHT22;29438;50.664;10.098;2023-01-19T11:58:29;2.50;78.70
43808;DHT22;29438;50.664;10.098;2023-01-19T12:03:56;2.30;78.10
43808;DHT22;29438;50.664;10.098;2023-01-19T12:06:30;2.30;77.60
43808;DHT22;29438;50.664;10.098;2023-01-19T12:09:57;2.00;78.40
43808;DHT22;29438;50.664;10.098;2023-01-19T12:17:26;0.90;83.50
43808;DHT22;29438;50.664;10.098;2023-01-19T12:20:24;0.70;84.40
43808;DHT22;29438;50.664;10.098;2023-01-19T12:28:13;0.40;86.90
43808;DHT22;29438;50.664;10.098;2023-01-19T12:30:39;0.50;87.30
43808;DHT22;29438;50.664;10.098;2023-01-19T12:33:21;0.50;87.50
43808;DHT22;29438;50.664;10.098;2023-01-19T12:36:01;0.50;87.60
43808;DHT22;29438;50.664;10.098;2023-01-19T12:38:49;0.50;87.60
43808;DHT22;29438;50.664;10.098;2023-01-19T12:41:31;0.50;87.20
43808;DHT22;29438;50.664;10.098;2023-01-19T12:46:36;0.50;86.80
43808;DHT22;29438;50.664;10.098;2023-01-19T12:49:41;0.50;86.50
43808;DHT22;29438;50.664;10.098;2023-01-19T12:52:32;0.30;86.80
43808;DHT22;29438;50.664;10.098;2023-01-19T12:55:00;0.30;86.80
43808;DHT22;29438;50.664;10.098;2023-01-19T12:57:39;0.40;86.70
43808;DHT22;29438;50.664;10.098;2023-01-19T13:00:27;0.40;86.80
43808;DHT22;29438;50.664;10.098;2023-01-19T13:02:54;0.60;86.60
43808;DHT22;29438;50.664;10.098;2023-01-19T13:24:04;1.00;85.00
43808;DHT22;29438;50.664;10.098;2023-01-19T13:26:35;1.10;85.30
43808;DHT22;29438;50.664;10.098;2023-01-19T13:31:43;1.10;85.60
43808;DHT22;29438;50.664;10.098;2023-01-19T13:34:18;1.00;85.50
43808;DHT22;29438;50.664;10.098;2023-01-19T13:36:48;0.90;85.80
43808;DHT22;29438;50.664;10.098;2023-01-19T13:41:58;0.80;86.80
43808;DHT22;29438;50.664;10.098;2023-01-19T13:44:31;0.90;86.60
43808;DHT22;29438;50.664;10.098;2023-01-19T13:46:59;1.00;86.40
43808;DHT22;29438;50.664;10.098;2023-01-19T13:49:34;0.90;86.20
43808;DHT22;29438;50.664;10.098;2023-01-19T13:52:22;1.00;86.60
43808;DHT22;29438;50.664;10.098;2023-01-19T13:54:50;1.10;86.60
43808;DHT22;29438;50.664;10.098;2023-01-19T13:57:29;1.00;86.30
43808;DHT22;29438;50.664;10.098;2023-01-19T14:02:39;0.70;86.60
43808;DHT22;29438;50.664;10.098;2023-01-19T14:05:21;0.80;87.00
43808;DHT22;29438;50.664;10.098;2023-01-19T14:07:47;0.50;87.40
43808;DHT22;29438;50.664;10.098;2023-01-19T14:10:14;0.60;87.90
43808;DHT22;29438;50.664;10.098;2023-01-19T14:12:41;0.50;88.10
43808;DHT22;29438;50.664;10.098;2023-01-19T14:15:11;0.50;88.30
43808;DHT22;29438;50.664;10.098;2023-01-19T14:17:39;0.40;88.50
43808;DHT22;29438;50.664;10.098;2023-01-19T14:20:06;0.40;89.20
43808;DHT22;29438;50.664;10.098;2023-01-19T14:22:38;0.30;89.30
43808;DHT22;29438;50.664;10.098;2023-01-19T14:28:24;0.10;89.60
43808;DHT22;29438;50.664;10.098;2023-01-19T14:31:01;0.10;89.70
43808;DHT22;29438;50.664;10.098;2023-01-19T14:33:41;0.00;89.80
43808;DHT22;29438;50.664;10.098;2023-01-19T14:36:10;0.00;90.10
43808;DHT22;29438;50.664;10.098;2023-01-19T14:38:46;0.00;90.00
43808;DHT22;29438;50.664;10.098;2023-01-19T14:41:22;0.00;90.30
43808;DHT22;29438;50.664;10.098;2023-01-19T14:43:49;0.00;90.40
43808;DHT22;29438;50.664;10.098;2023-01-19T14:46:19;0.00;90.40
43808;DHT22;29438;50.664;10.098;2023-01-19T14:48:46;0.00;90.50
43808;DHT22;29438;50.664;10.098;2023-01-19T14:51:17;0.00;90.60
43808;DHT22;29438;50.664;10.098;2023-01-19T14:53:49;0.00;90.70
43808;DHT22;29438;50.664;10.098;2023-01-19T14:56:27;0.00;90.60
43808;DHT22;29438;50.664;10.098;2023-01-19T14:58:55;0.00;90.40
43808;DHT22;29438;50.664;10.098;2023-01-19T15:01:21;0.00;90.40
43808;DHT22;29438;50.664;10.098;2023-01-19T15:03:47;0.00;90.50
43808;DHT22;29438;50.664;10.098;2023-01-19T15:06:15;-3276.70;90.70
43808;DHT22;29438;50.664;10.098;2023-01-19T15:08:42;-3276.70;90.60
43808;DHT22;29438;50.664;10.098;2023-01-19T15:11:20;-3276.70;90.80
43808;DHT22;29438;50.664;10.098;2023-01-19T15:13:47;-3276.70;90.80
43808;DHT22;29438;50.664;10.098;2023-01-19T15:16:13;-3276.70;90.90
43808;DHT22;29438;50.664;10.098;2023-01-19T15:18:38;-3276.70;90.90
43808;DHT22;29438;50.664;10.098;2023-01-19T15:21:05;-3276.70;91.00
43808;DHT22;29438;50.664;10.098;2023-01-19T15:23:31;-3276.60;91.10
43808;DHT22;29438;50.664;10.098;2023-01-19T15:26:01;-3276.60;91.30
43808;DHT22;29438;50.664;10.098;2023-01-19T15:28:28;-3276.60;91.40
43808;DHT22;29438;50.664;10.098;2023-01-19T15:30:54;-3276.60;91.40
43808;DHT22;29438;50.664;10.098;2023-01-19T15:33:22;-3276.60;91.40
43808;DHT22;29438;50.664;10.098;2023-01-19T15:35:48;-3276.60;91.40
43808;DHT22;29438;50.664;10.098;2023-01-19T15:38:14;-3276.60;91.50
43808;DHT22;29438;50.664;10.098;2023-01-19T15:40:40;-3276.60;91.50
43808;DHT22;29438;50.664;10.098;2023-01-19T15:43:05;-3276.50;91.60
43808;DHT22;29438;50.664;10.098;2023-01-19T15:45:42;-3276.50;91.70
43808;DHT22;29438;50.664;10.098;2023-01-19T15:48:09;-3276.50;91.70
43808;DHT22;29438;50.664;10.098;2023-01-19T15:50:38;-3276.50;91.80
43808;DHT22;29438;50.664;10.098;2023-01-19T15:53:04;-3276.50;91.80
43808;DHT22;29438;50.664;10.098;2023-01-19T15:55:29;-3276.50;91.90
43808;DHT22;29438;50.664;10.098;2023-01-19T15:57:55;-3276.50;91.90
43808;DHT22;29438;50.664;10.098;2023-01-19T16:00:31;-3276.50;91.90
43808;DHT22;29438;50.664;10.098;2023-01-19T16:02:57;-3276.50;91.90
43808;DHT22;29438;50.664;10.098;2023-01-19T16:05:23;-3276.50;91.90
43808;DHT22;29438;50.664;10.098;2023-01-19T16:07:49;-3276.50;91.90
43808;DHT22;29438;50.664;10.098;2023-01-19T16:10:15;-3276.50;91.90
43808;DHT22;29438;50.664;10.098;2023-01-19T16:12:42;-3276.50;91.90
43808;DHT22;29438;50.664;10.098;2023-01-19T16:15:08;-3276.50;92.00
43808;DHT22;29438;50.664;10.098;2023-01-19T16:17:34;-3276.40;92.00
43808;DHT22;29438;50.664;10.098;2023-01-19T16:20:01;-3276.40;92.10